createdAt,value
2023-01-13T00:04:27.555Z,0.60
2023-01-13T00:09:33.655Z,0.47
2023-01-13T00:14:39.181Z,0.60
2023-01-13T00:19:41.786Z,0.38
2023-01-13T00:24:44.601Z,0.45
2023-01-13T00:29:49.944Z,0.40
2023-01-13T00:34:54.455Z,0.52
2023-01-13T00:39:59.814Z,0.50
2023-01-13T00:45:04.525Z,0.50
2023-01-13T00:50:09.685Z,0.50
2023-01-13T00:55:14.490Z,0.50
2023-01-13T01:00:19.141Z,0.85
2023-01-13T01:05:23.223Z,1.10
2023-01-13T01:10:28.455Z,0.90
2023-01-13T01:15:34.023Z,1.35
2023-01-13T01:20:38.335Z,1.50
2023-01-13T01:25:40.937Z,2.70
2023-01-13T01:30:43.528Z,2.13
2023-01-13T01:35:46.172Z,2.03
2023-01-13T01:40:50.070Z,1.98
2023-01-13T01:45:55.964Z,2.30
2023-01-13T01:51:01.979Z,2.03
2023-01-13T01:56:08.942Z,1.63
2023-01-13T02:01:16.559Z,1.38
2023-01-13T02:06:20.586Z,1.00
2023-01-13T02:11:55.443Z,1.88
2023-01-13T02:17:29.886Z,1.27
2023-01-13T02:23:33.653Z,3.25
2023-01-13T02:29:29.554Z,7.00
2023-01-13T02:34:46.516Z,4.38
2023-01-13T02:40:01.772Z,3.22
2023-01-13T02:45:16.194Z,24.02
2023-01-13T02:50:23.765Z,36.45
2023-01-13T02:55:36.121Z,9.75
2023-01-13T03:00:39.171Z,19.27
2023-01-13T03:05:44.961Z,14.77
2023-01-13T03:11:12.819Z,52.42
2023-01-13T03:16:42.383Z,24.38
2023-01-13T03:21:54.763Z,12.50
2023-01-13T03:27:10.696Z,8.27
2023-01-13T03:32:21.040Z,9.45
2023-01-13T03:37:35.468Z,6.75
2023-01-13T03:42:40.035Z,6.22
2023-01-13T03:47:55.978Z,3.08
2023-01-13T03:53:32.632Z,1.48
2023-01-13T03:58:43.551Z,1.88
2023-01-13T04:04:08.528Z,1.95
2023-01-13T04:09:47.912Z,1.60
2023-01-13T04:14:51.314Z,1.50
2023-01-13T04:19:54.029Z,1.73
2023-01-13T04:24:57.572Z,1.80
2023-01-13T04:30:02.105Z,2.15
2023-01-13T04:35:08.474Z,2.20
2023-01-13T04:40:11.667Z,3.13
2023-01-13T04:45:15.015Z,2.10
2023-01-13T04:50:23.475Z,1.92
2023-01-13T04:55:27.454Z,1.98
2023-01-13T05:00:32.682Z,2.40
2023-01-13T05:05:39.186Z,1.98
2023-01-13T05:10:42.000Z,1.30
2023-01-13T05:16:05.803Z,1.90
2023-01-13T05:21:29.168Z,4.07
2023-01-13T05:26:32.256Z,4.35
2023-01-13T05:31:36.134Z,2.97
2023-01-13T05:36:38.806Z,2.05
2023-01-13T05:42:03.090Z,2.30
2023-01-13T05:47:06.740Z,2.15
2023-01-13T05:52:09.311Z,3.03
2023-01-13T05:57:12.158Z,2.88
2023-01-13T06:02:14.734Z,2.95
2023-01-13T06:07:17.285Z,4.80
2023-01-13T06:12:19.896Z,5.03
2023-01-13T06:17:22.607Z,5.32
2023-01-13T06:22:35.746Z,4.90
2023-01-13T06:27:38.477Z,2.70
2023-01-13T06:32:47.987Z,3.13
2023-01-13T06:37:53.751Z,4.18
2023-01-13T06:43:16.646Z,3.05
2023-01-13T06:48:25.237Z,3.35
2023-01-13T06:53:28.023Z,3.33
2023-01-13T06:58:30.959Z,3.15
2023-01-13T07:03:33.646Z,4.45
2023-01-13T07:08:36.422Z,4.20
2023-01-13T07:13:57.751Z,3.53
2023-01-13T07:19:00.543Z,4.88
2023-01-13T07:24:03.518Z,5.90
2023-01-13T07:29:06.378Z,7.05
2023-01-13T07:34:09.032Z,7.30
2023-01-13T07:39:11.602Z,5.65
2023-01-13T07:44:14.454Z,3.50
2023-01-13T07:49:16.996Z,5.65
2023-01-13T07:54:25.521Z,8.55
2023-01-13T07:59:34.831Z,5.72
2023-01-13T08:04:38.378Z,4.00
2023-01-13T08:09:40.922Z,5.95
2023-01-13T08:14:43.587Z,4.70
2023-01-13T08:19:47.256Z,3.75
2023-01-13T08:24:51.108Z,3.75
2023-01-13T08:29:55.033Z,3.17
2023-01-13T08:34:59.644Z,2.80
2023-01-13T08:40:04.914Z,3.30
2023-01-13T08:45:10.031Z,3.70
2023-01-13T08:50:12.791Z,7.43
2023-01-13T08:55:15.588Z,4.13
2023-01-13T09:00:18.791Z,4.35
2023-01-13T09:05:21.611Z,5.22
2023-01-13T09:10:25.418Z,7.57
2023-01-13T09:15:28.969Z,14.80
2023-01-13T09:20:33.498Z,17.63
2023-01-13T09:25:38.808Z,12.32
2023-01-13T09:30:41.411Z,2.03
2023-01-13T09:35:45.223Z,1.52
2023-01-13T09:40:51.195Z,2.17
2023-01-13T09:46:07.563Z,1.98
2023-01-13T09:51:18.757Z,2.03
2023-01-13T09:56:22.472Z,1.80
2023-01-13T10:01:41.078Z,2.35
2023-01-13T10:06:51.192Z,1.58
2023-01-13T10:12:15.607Z,2.13
2023-01-13T10:17:47.448Z,2.20
2023-01-13T10:22:53.034Z,1.55
2023-01-13T10:28:01.991Z,1.27
2023-01-13T10:33:28.100Z,2.08
2023-01-13T10:38:36.690Z,2.35
2023-01-13T10:43:39.402Z,3.60
2023-01-13T10:48:56.066Z,2.97
2023-01-13T10:54:13.043Z,3.55
2023-01-13T10:59:27.125Z,3.03
2023-01-13T11:05:18.728Z,2.53
2023-01-13T11:10:33.379Z,2.63
2023-01-13T11:15:54.958Z,3.10
2023-01-13T11:20:58.808Z,3.55
2023-01-13T11:26:21.793Z,3.10
2023-01-13T11:31:34.978Z,3.33
2023-01-13T11:36:43.025Z,2.53
2023-01-13T11:42:13.753Z,3.17
2023-01-13T11:47:20.891Z,3.75
2023-01-13T11:53:01.930Z,3.65
2023-01-13T11:58:31.761Z,6.97
2023-01-13T12:03:39.454Z,8.80
2023-01-13T12:09:15.672Z,3.95
2023-01-13T12:14:36.039Z,4.45
2023-01-13T12:19:38.902Z,4.72
2023-01-13T12:24:57.906Z,5.20
2023-01-13T12:30:10.564Z,5.43
2023-01-13T12:35:40.096Z,5.70
2023-01-13T12:41:00.200Z,5.18
2023-01-13T12:46:23.660Z,4.43
2023-01-13T12:51:38.362Z,4.25
2023-01-13T12:56:45.043Z,4.95
2023-01-13T13:02:11.455Z,5.13
2023-01-13T13:07:23.496Z,3.65
2023-01-13T13:13:10.734Z,3.63
2023-01-13T13:18:27.510Z,4.00
2023-01-13T13:23:47.858Z,3.85
2023-01-13T13:29:12.108Z,5.53
2023-01-13T13:34:14.586Z,4.05
2023-01-13T13:39:49.009Z,4.80
2023-01-13T13:45:10.215Z,4.18
2023-01-13T13:50:22.614Z,12.73
2023-01-13T13:55:28.522Z,5.53
2023-01-13T14:00:35.906Z,11.70
2023-01-13T14:05:38.718Z,6.45
2023-01-13T14:10:45.681Z,2.95
2023-01-13T14:16:00.873Z,6.38
2023-01-13T14:21:24.226Z,4.50
2023-01-13T14:26:32.679Z,5.88
2023-01-13T14:31:35.572Z,9.20
2023-01-13T14:36:39.330Z,7.50
2023-01-13T14:41:48.169Z,5.50
2023-01-13T14:46:51.143Z,6.50
2023-01-13T14:51:54.317Z,6.60
2023-01-13T14:57:23.150Z,6.70
2023-01-13T15:02:25.698Z,5.82
2023-01-13T15:07:31.523Z,5.78
2023-01-13T15:12:39.797Z,9.57
2023-01-13T15:38:55.059Z,9.18
2023-01-13T16:09:24.252Z,6.60
2023-01-13T16:14:28.024Z,6.25
2023-01-13T16:19:32.286Z,11.70
2023-01-13T16:24:36.455Z,5.67
2023-01-13T16:29:40.818Z,4.63
2023-01-13T16:34:44.063Z,3.93
2023-01-13T16:39:47.757Z,6.95
2023-01-13T16:44:53.311Z,5.00
2023-01-13T16:49:57.379Z,3.05
2023-01-13T16:55:01.424Z,6.05
2023-01-13T17:00:06.636Z,3.58
2023-01-13T17:05:13.231Z,3.90
2023-01-13T17:10:27.350Z,4.38
2023-01-13T17:15:31.460Z,4.50
2023-01-13T17:20:36.323Z,4.65
2023-01-13T17:25:40.407Z,4.43
2023-01-13T17:30:45.193Z,4.70
2023-01-13T17:35:49.315Z,4.57
2023-01-13T17:40:53.619Z,4.85
2023-01-13T17:45:58.145Z,4.97
2023-01-13T17:51:02.573Z,6.57
2023-01-13T17:56:07.551Z,5.40
2023-01-13T18:01:25.272Z,6.15
2023-01-13T18:06:29.256Z,4.97
2023-01-13T18:11:33.187Z,6.22
2023-01-13T19:33:46.619Z,8.77
2023-01-13T19:39:02.630Z,3.85
2023-01-13T19:44:24.401Z,3.72
2023-01-13T19:49:26.959Z,3.65
2023-01-13T19:54:30.180Z,3.53
2023-01-13T19:59:33.951Z,3.20
2023-01-13T20:04:40.236Z,4.63
2023-01-13T20:09:44.992Z,3.17
2023-01-13T20:14:47.941Z,4.93
2023-01-13T20:19:50.562Z,3.88
2023-01-13T20:24:55.050Z,2.90
2023-01-13T20:29:59.074Z,4.20
2023-01-13T20:35:02.745Z,4.07
2023-01-13T20:40:07.895Z,3.50
2023-01-13T20:45:13.295Z,3.47
2023-01-13T20:50:17.444Z,4.13
2023-01-13T20:55:22.798Z,3.93
2023-01-13T21:00:28.445Z,5.70
2023-01-13T21:05:33.005Z,3.72
2023-01-13T21:10:36.602Z,3.00
2023-01-13T21:15:40.365Z,3.33
2023-01-13T21:20:43.752Z,2.80
2023-01-13T21:25:46.580Z,3.78
2023-01-13T21:30:50.286Z,2.50
2023-01-13T21:35:57.161Z,2.93
2023-01-13T21:41:06.483Z,3.60
2023-01-13T21:46:35.263Z,4.72
2023-01-13T21:51:38.966Z,3.47
2023-01-13T21:56:42.935Z,3.55
2023-01-13T22:02:02.056Z,3.33
2023-01-13T22:07:10.658Z,3.85
2023-01-13T22:12:14.599Z,5.73
2023-01-13T22:17:17.954Z,2.58
2023-01-13T22:22:22.043Z,2.30
2023-01-13T22:27:29.022Z,2.70
2023-01-13T22:32:35.159Z,2.63
2023-01-13T22:37:38.963Z,3.30
2023-01-13T22:42:44.613Z,4.13
2023-01-13T22:47:49.660Z,3.42
2023-01-13T22:52:52.458Z,3.00
2023-01-13T22:57:55.923Z,3.28
2023-01-13T23:02:59.617Z,2.72
2023-01-13T23:08:02.583Z,3.08
2023-01-13T23:13:05.876Z,2.92
2023-01-13T23:18:09.556Z,3.65
2023-01-13T23:23:13.689Z,3.25
2023-01-13T23:28:17.305Z,3.90
2023-01-13T23:33:21.075Z,3.28
2023-01-13T23:38:24.468Z,4.57
2023-01-13T23:43:27.913Z,3.75
2023-01-13T23:48:31.530Z,3.45
2023-01-13T23:53:42.243Z,3.95
2023-01-13T23:58:47.311Z,3.95
